sensor_id;sensor_type;location;lat;lon;timestamp;P1;durP1;ratioP1;P2;durP2;ratioP2
10633;SDS011;5365;51.640;8.106;2023-06-24T00:01:55;5.53;;;3.00;;
10633;SDS011;5365;51.640;8.106;2023-06-24T00:04:55;5.63;;;2.90;;
10633;SDS011;5365;51.640;8.106;2023-06-24T00:11:02;5.68;;;2.63;;
10633;SDS011;5365;51.640;8.106;2023-06-24T00:14:03;4.97;;;2.60;;
10633;SDS011;5365;51.640;8.106;2023-06-24T00:17:03;6.13;;;2.60;;
10633;SDS011;5365;51.640;8.106;2023-06-24T00:20:04;4.63;;;2.55;;
10633;SDS011;5365;51.640;8.106;2023-06-24T00:23:07;4.57;;;2.45;;
10633;SDS011;5365;51.640;8.106;2023-06-24T00:26:07;5.38;;;2.58;;
10633;SDS011;5365;51.640;8.106;2023-06-24T00:29:07;3.63;;;2.03;;
10633;SDS011;5365;51.640;8.106;2023-06-24T00:32:08;7.00;;;2.83;;
10633;SDS011;5365;51.640;8.106;2023-06-24T00:35:09;5.63;;;2.83;;
10633;SDS011;5365;51.640;8.106;2023-06-24T00:38:10;6.57;;;3.47;;
10633;SDS011;5365;51.640;8.106;2023-06-24T00:41:10;5.27;;;3.03;;
10633;SDS011;5365;51.640;8.106;2023-06-24T00:44:11;5.03;;;2.73;;
10633;SDS011;5365;51.640;8.106;2023-06-24T00:47:11;4.10;;;2.40;;
10633;SDS011;5365;51.640;8.106;2023-06-24T00:50:12;5.57;;;2.80;;
10633;SDS011;5365;51.640;8.106;2023-06-24T00:53:12;7.50;;;3.03;;
10633;SDS011;5365;51.640;8.106;2023-06-24T00:56:12;5.13;;;2.67;;
10633;SDS011;5365;51.640;8.106;2023-06-24T00:59:15;6.57;;;3.53;;
10633;SDS011;5365;51.640;8.106;2023-06-24T01:02:15;5.22;;;2.67;;
10633;SDS011;5365;51.640;8.106;2023-06-24T01:05:15;5.43;;;2.37;;
10633;SDS011;5365;51.640;8.106;2023-06-24T01:08:15;6.65;;;3.35;;
10633;SDS011;5365;51.640;8.106;2023-06-24T01:11:16;5.17;;;3.30;;
10633;SDS011;5365;51.640;8.106;2023-06-24T01:14:16;4.82;;;2.80;;
10633;SDS011;5365;51.640;8.106;2023-06-24T01:17:22;5.75;;;2.45;;
10633;SDS011;5365;51.640;8.106;2023-06-24T01:30:28;4.15;;;2.53;;
10633;SDS011;5365;51.640;8.106;2023-06-24T01:33:24;4.82;;;2.35;;
10633;SDS011;5365;51.640;8.106;2023-06-24T01:36:26;5.32;;;2.58;;
10633;SDS011;5365;51.640;8.106;2023-06-24T01:39:27;4.38;;;2.42;;
10633;SDS011;5365;51.640;8.106;2023-06-24T01:42:28;5.22;;;2.83;;
10633;SDS011;5365;51.640;8.106;2023-06-24T01:45:35;4.88;;;2.28;;
10633;SDS011;5365;51.640;8.106;2023-06-24T01:48:36;4.88;;;2.70;;
10633;SDS011;5365;51.640;8.106;2023-06-24T01:51:39;5.25;;;2.53;;
10633;SDS011;5365;51.640;8.106;2023-06-24T01:54:41;6.15;;;2.45;;
10633;SDS011;5365;51.640;8.106;2023-06-24T01:57:41;6.40;;;3.67;;
10633;SDS011;5365;51.640;8.106;2023-06-24T02:00:42;7.43;;;3.33;;
10633;SDS011;5365;51.640;8.106;2023-06-24T02:03:42;4.67;;;2.47;;
10633;SDS011;5365;51.640;8.106;2023-06-24T02:06:43;5.90;;;3.15;;
10633;SDS011;5365;51.640;8.106;2023-06-24T02:09:44;8.30;;;3.53;;
10633;SDS011;5365;51.640;8.106;2023-06-24T02:12:46;7.18;;;3.47;;
10633;SDS011;5365;51.640;8.106;2023-06-24T02:15:47;5.78;;;2.92;;
10633;SDS011;5365;51.640;8.106;2023-06-24T02:18:49;5.95;;;3.15;;
10633;SDS011;5365;51.640;8.106;2023-06-24T02:21:49;5.25;;;3.15;;
10633;SDS011;5365;51.640;8.106;2023-06-24T02:24:51;5.95;;;2.97;;
10633;SDS011;5365;51.640;8.106;2023-06-24T02:27:53;4.47;;;2.63;;
10633;SDS011;5365;51.640;8.106;2023-06-24T02:30:54;6.93;;;4.13;;
10633;SDS011;5365;51.640;8.106;2023-06-24T02:33:54;5.57;;;3.47;;
10633;SDS011;5365;51.640;8.106;2023-06-24T02:36:54;6.27;;;3.53;;
10633;SDS011;5365;51.640;8.106;2023-06-24T02:39:54;5.73;;;2.60;;
10633;SDS011;5365;51.640;8.106;2023-06-24T02:42:56;5.78;;;2.90;;
10633;SDS011;5365;51.640;8.106;2023-06-24T02:45:57;6.43;;;3.13;;
10633;SDS011;5365;51.640;8.106;2023-06-24T02:48:58;6.82;;;3.22;;
10633;SDS011;5365;51.640;8.106;2023-06-24T02:51:58;4.70;;;2.47;;
10633;SDS011;5365;51.640;8.106;2023-06-24T02:54:58;6.23;;;3.47;;
10633;SDS011;5365;51.640;8.106;2023-06-24T02:57:59;5.22;;;3.35;;
10633;SDS011;5365;51.640;8.106;2023-06-24T03:01:00;6.82;;;3.60;;
10633;SDS011;5365;51.640;8.106;2023-06-24T03:04:00;5.45;;;3.10;;
10633;SDS011;5365;51.640;8.106;2023-06-24T03:07:00;4.50;;;2.80;;
10633;SDS011;5365;51.640;8.106;2023-06-24T03:10:02;7.10;;;3.90;;
10633;SDS011;5365;51.640;8.106;2023-06-24T03:13:03;8.07;;;3.28;;
10633;SDS011;5365;51.640;8.106;2023-06-24T03:16:03;6.70;;;3.37;;
10633;SDS011;5365;51.640;8.106;2023-06-24T03:19:06;5.87;;;2.73;;
10633;SDS011;5365;51.640;8.106;2023-06-24T03:22:06;4.78;;;2.70;;
10633;SDS011;5365;51.640;8.106;2023-06-24T03:25:07;6.67;;;3.87;;
10633;SDS011;5365;51.640;8.106;2023-06-24T03:28:07;6.57;;;3.43;;
10633;SDS011;5365;51.640;8.106;2023-06-24T03:31:07;7.23;;;3.53;;
10633;SDS011;5365;51.640;8.106;2023-06-24T03:34:07;5.17;;;3.20;;
10633;SDS011;5365;51.640;8.106;2023-06-24T03:37:08;5.05;;;2.90;;
10633;SDS011;5365;51.640;8.106;2023-06-24T03:40:08;5.43;;;2.70;;
10633;SDS011;5365;51.640;8.106;2023-06-24T03:43:09;6.30;;;3.30;;
10633;SDS011;5365;51.640;8.106;2023-06-24T03:46:09;5.55;;;2.35;;
10633;SDS011;5365;51.640;8.106;2023-06-24T03:49:09;6.33;;;3.57;;
10633;SDS011;5365;51.640;8.106;2023-06-24T03:52:09;6.70;;;3.17;;
10633;SDS011;5365;51.640;8.106;2023-06-24T03:55:10;9.33;;;2.70;;
10633;SDS011;5365;51.640;8.106;2023-06-24T03:58:10;5.95;;;3.38;;
10633;SDS011;5365;51.640;8.106;2023-06-24T04:01:11;5.22;;;2.63;;
10633;SDS011;5365;51.640;8.106;2023-06-24T04:04:11;4.53;;;2.30;;
10633;SDS011;5365;51.640;8.106;2023-06-24T04:07:11;5.50;;;2.97;;
10633;SDS011;5365;51.640;8.106;2023-06-24T04:10:11;6.03;;;2.90;;
10633;SDS011;5365;51.640;8.106;2023-06-24T04:13:12;4.80;;;2.53;;
10633;SDS011;5365;51.640;8.106;2023-06-24T04:16:12;6.13;;;2.93;;
10633;SDS011;5365;51.640;8.106;2023-06-24T04:19:13;6.00;;;2.75;;
10633;SDS011;5365;51.640;8.106;2023-06-24T04:22:13;5.73;;;3.10;;
10633;SDS011;5365;51.640;8.106;2023-06-24T04:25:13;5.85;;;2.88;;
10633;SDS011;5365;51.640;8.106;2023-06-24T04:28:13;6.13;;;3.17;;
10633;SDS011;5365;51.640;8.106;2023-06-24T04:31:13;4.77;;;2.67;;
10633;SDS011;5365;51.640;8.106;2023-06-24T04:34:14;4.82;;;3.00;;
10633;SDS011;5365;51.640;8.106;2023-06-24T04:37:14;4.90;;;2.60;;
10633;SDS011;5365;51.640;8.106;2023-06-24T04:40:14;6.30;;;3.15;;
10633;SDS011;5365;51.640;8.106;2023-06-24T04:43:14;5.90;;;3.22;;
10633;SDS011;5365;51.640;8.106;2023-06-24T04:46:15;7.03;;;3.40;;
10633;SDS011;5365;51.640;8.106;2023-06-24T04:49:16;5.80;;;3.03;;
10633;SDS011;5365;51.640;8.106;2023-06-24T04:52:16;5.23;;;2.93;;
10633;SDS011;5365;51.640;8.106;2023-06-24T04:55:16;7.00;;;3.70;;
10633;SDS011;5365;51.640;8.106;2023-06-24T04:58:16;5.27;;;3.63;;
10633;SDS011;5365;51.640;8.106;2023-06-24T05:01:17;6.20;;;3.47;;
10633;SDS011;5365;51.640;8.106;2023-06-24T05:04:17;5.78;;;3.55;;
10633;SDS011;5365;51.640;8.106;2023-06-24T05:07:18;6.80;;;3.70;;
10633;SDS011;5365;51.640;8.106;2023-06-24T05:10:18;4.45;;;2.90;;
10633;SDS011;5365;51.640;8.106;2023-06-24T05:13:18;5.13;;;2.63;;
10633;SDS011;5365;51.640;8.106;2023-06-24T05:16:18;6.43;;;3.00;;
10633;SDS011;5365;51.640;8.106;2023-06-24T05:19:19;6.30;;;3.20;;
10633;SDS011;5365;51.640;8.106;2023-06-24T05:22:19;5.20;;;3.10;;
10633;SDS011;5365;51.640;8.106;2023-06-24T05:25:19;5.97;;;2.77;;
10633;SDS011;5365;51.640;8.106;2023-06-24T05:28:19;5.53;;;3.60;;
10633;SDS011;5365;51.640;8.106;2023-06-24T05:31:19;6.22;;;3.42;;
10633;SDS011;5365;51.640;8.106;2023-06-24T05:34:20;4.77;;;2.47;;
10633;SDS011;5365;51.640;8.106;2023-06-24T05:37:20;6.17;;;3.70;;
10633;SDS011;5365;51.640;8.106;2023-06-24T05:40:20;4.95;;;2.95;;
10633;SDS011;5365;51.640;8.106;2023-06-24T05:43:20;6.73;;;3.60;;
10633;SDS011;5365;51.640;8.106;2023-06-24T05:46:21;6.07;;;3.63;;
10633;SDS011;5365;51.640;8.106;2023-06-24T05:49:22;6.33;;;3.60;;
10633;SDS011;5365;51.640;8.106;2023-06-24T05:52:22;5.10;;;3.50;;
10633;SDS011;5365;51.640;8.106;2023-06-24T05:55:22;6.13;;;3.30;;
10633;SDS011;5365;51.640;8.106;2023-06-24T05:58:22;5.53;;;2.90;;
10633;SDS011;5365;51.640;8.106;2023-06-24T06:01:22;5.35;;;2.92;;
10633;SDS011;5365;51.640;8.106;2023-06-24T06:04:23;4.60;;;3.03;;
10633;SDS011;5365;51.640;8.106;2023-06-24T06:07:23;4.73;;;2.70;;
10633;SDS011;5365;51.640;8.106;2023-06-24T06:10:23;4.37;;;2.20;;
10633;SDS011;5365;51.640;8.106;2023-06-24T06:13:23;4.10;;;2.30;;
10633;SDS011;5365;51.640;8.106;2023-06-24T06:16:23;4.87;;;2.53;;
10633;SDS011;5365;51.640;8.106;2023-06-24T06:19:24;5.10;;;2.80;;
10633;SDS011;5365;51.640;8.106;2023-06-24T06:22:24;4.90;;;2.90;;
10633;SDS011;5365;51.640;8.106;2023-06-24T06:25:24;3.95;;;2.15;;
10633;SDS011;5365;51.640;8.106;2023-06-24T06:28:24;4.50;;;2.67;;
10633;SDS011;5365;51.640;8.106;2023-06-24T06:31:24;3.92;;;2.22;;
10633;SDS011;5365;51.640;8.106;2023-06-24T06:34:26;4.40;;;2.72;;
10633;SDS011;5365;51.640;8.106;2023-06-24T06:37:26;5.13;;;3.10;;
10633;SDS011;5365;51.640;8.106;2023-06-24T06:40:26;5.00;;;2.87;;
10633;SDS011;5365;51.640;8.106;2023-06-24T06:43:28;6.65;;;4.07;;
10633;SDS011;5365;51.640;8.106;2023-06-24T06:46:28;5.30;;;3.20;;
10633;SDS011;5365;51.640;8.106;2023-06-24T06:49:28;5.30;;;2.57;;
10633;SDS011;5365;51.640;8.106;2023-06-24T06:52:29;5.40;;;2.95;;
10633;SDS011;5365;51.640;8.106;2023-06-24T06:55:29;6.03;;;3.30;;
10633;SDS011;5365;51.640;8.106;2023-06-24T06:58:29;7.40;;;3.00;;
10633;SDS011;5365;51.640;8.106;2023-06-24T07:01:29;4.90;;;2.88;;
10633;SDS011;5365;51.640;8.106;2023-06-24T07:04:30;5.00;;;2.50;;
10633;SDS011;5365;51.640;8.106;2023-06-24T07:07:31;4.45;;;2.55;;
10633;SDS011;5365;51.640;8.106;2023-06-24T07:10:32;5.75;;;3.42;;
10633;SDS011;5365;51.640;8.106;2023-06-24T07:13:32;5.40;;;2.80;;
10633;SDS011;5365;51.640;8.106;2023-06-24T07:16:33;5.38;;;2.55;;
10633;SDS011;5365;51.640;8.106;2023-06-24T07:19:33;4.93;;;2.80;;
10633;SDS011;5365;51.640;8.106;2023-06-24T07:22:33;6.57;;;2.97;;
10633;SDS011;5365;51.640;8.106;2023-06-24T07:25:33;4.83;;;2.70;;
10633;SDS011;5365;51.640;8.106;2023-06-24T07:28:34;4.68;;;2.65;;
10633;SDS011;5365;51.640;8.106;2023-06-24T07:31:35;6.47;;;2.93;;
10633;SDS011;5365;51.640;8.106;2023-06-24T07:34:35;4.88;;;3.03;;
10633;SDS011;5365;51.640;8.106;2023-06-24T07:37:35;5.40;;;3.30;;
10633;SDS011;5365;51.640;8.106;2023-06-24T07:40:36;4.33;;;2.50;;
10633;SDS011;5365;51.640;8.106;2023-06-24T07:43:36;4.77;;;2.93;;
10633;SDS011;5365;51.640;8.106;2023-06-24T07:46:36;5.25;;;2.20;;
10633;SDS011;5365;51.640;8.106;2023-06-24T07:49:36;5.30;;;2.53;;
10633;SDS011;5365;51.640;8.106;2023-06-24T07:52:37;5.20;;;2.10;;
10633;SDS011;5365;51.640;8.106;2023-06-24T07:55:37;3.95;;;2.42;;
10633;SDS011;5365;51.640;8.106;2023-06-24T07:58:38;4.60;;;2.70;;
10633;SDS011;5365;51.640;8.106;2023-06-24T08:01:38;4.57;;;2.60;;
10633;SDS011;5365;51.640;8.106;2023-06-24T08:04:39;4.17;;;2.67;;
10633;SDS011;5365;51.640;8.106;2023-06-24T08:07:39;4.60;;;2.70;;
10633;SDS011;5365;51.640;8.106;2023-06-24T08:10:39;3.60;;;2.70;;
10633;SDS011;5365;51.640;8.106;2023-06-24T08:13:39;4.53;;;2.63;;
10633;SDS011;5365;51.640;8.106;2023-06-24T08:16:39;5.77;;;2.90;;
10633;SDS011;5365;51.640;8.106;2023-06-24T08:19:40;6.77;;;3.23;;
10633;SDS011;5365;51.640;8.106;2023-06-24T08:22:40;4.93;;;3.07;;
10633;SDS011;5365;51.640;8.106;2023-06-24T08:25:40;4.60;;;2.50;;
10633;SDS011;5365;51.640;8.106;2023-06-24T08:28:40;6.73;;;3.17;;
10633;SDS011;5365;51.640;8.106;2023-06-24T08:31:41;4.35;;;2.33;;
10633;SDS011;5365;51.640;8.106;2023-06-24T08:34:41;4.70;;;2.40;;
10633;SDS011;5365;51.640;8.106;2023-06-24T08:37:41;3.93;;;2.20;;
10633;SDS011;5365;51.640;8.106;2023-06-24T08:40:41;4.30;;;2.77;;
10633;SDS011;5365;51.640;8.106;2023-06-24T08:43:43;4.72;;;2.63;;
10633;SDS011;5365;51.640;8.106;2023-06-24T08:46:43;4.73;;;2.53;;
10633;SDS011;5365;51.640;8.106;2023-06-24T08:49:47;4.13;;;2.60;;
10633;SDS011;5365;51.640;8.106;2023-06-24T08:52:50;3.50;;;2.45;;
10633;SDS011;5365;51.640;8.106;2023-06-24T08:55:52;3.70;;;2.55;;
10633;SDS011;5365;51.640;8.106;2023-06-24T08:58:53;4.50;;;1.85;;
10633;SDS011;5365;51.640;8.106;2023-06-24T09:01:53;4.25;;;2.30;;
10633;SDS011;5365;51.640;8.106;2023-06-24T09:04:53;4.97;;;3.10;;
10633;SDS011;5365;51.640;8.106;2023-06-24T09:07:54;3.53;;;2.10;;
10633;SDS011;5365;51.640;8.106;2023-06-24T09:10:55;4.70;;;2.50;;
10633;SDS011;5365;51.640;8.106;2023-06-24T09:13:56;5.75;;;2.05;;
10633;SDS011;5365;51.640;8.106;2023-06-24T09:16:57;3.90;;;2.08;;
10633;SDS011;5365;51.640;8.106;2023-06-24T09:20:04;3.40;;;2.28;;
10633;SDS011;5365;51.640;8.106;2023-06-24T09:23:05;4.28;;;2.20;;
10633;SDS011;5365;51.640;8.106;2023-06-24T09:26:09;3.80;;;2.37;;
10633;SDS011;5365;51.640;8.106;2023-06-24T09:29:09;4.30;;;2.28;;
10633;SDS011;5365;51.640;8.106;2023-06-24T09:32:09;5.13;;;2.10;;
10633;SDS011;5365;51.640;8.106;2023-06-24T09:35:10;3.63;;;2.30;;
10633;SDS011;5365;51.640;8.106;2023-06-24T09:38:10;3.63;;;2.13;;
10633;SDS011;5365;51.640;8.106;2023-06-24T09:41:10;4.40;;;2.67;;
10633;SDS011;5365;51.640;8.106;2023-06-24T09:44:11;3.08;;;2.05;;
10633;SDS011;5365;51.640;8.106;2023-06-24T09:47:11;3.17;;;1.87;;
10633;SDS011;5365;51.640;8.106;2023-06-24T09:50:12;4.30;;;2.70;;
10633;SDS011;5365;51.640;8.106;2023-06-24T09:53:12;4.60;;;2.60;;
10633;SDS011;5365;51.640;8.106;2023-06-24T09:56:12;4.53;;;2.73;;
10633;SDS011;5365;51.640;8.106;2023-06-24T09:59:13;3.65;;;2.75;;
10633;SDS011;5365;51.640;8.106;2023-06-24T10:02:14;3.80;;;2.35;;
10633;SDS011;5365;51.640;8.106;2023-06-24T10:05:14;3.95;;;2.95;;
10633;SDS011;5365;51.640;8.106;2023-06-24T10:08:15;4.83;;;2.63;;
10633;SDS011;5365;51.640;8.106;2023-06-24T10:11:15;3.23;;;2.60;;
10633;SDS011;5365;51.640;8.106;2023-06-24T10:14:15;3.43;;;2.53;;
10633;SDS011;5365;51.640;8.106;2023-06-24T10:17:15;6.50;;;3.33;;
10633;SDS011;5365;51.640;8.106;2023-06-24T10:20:25;3.43;;;2.47;;
10633;SDS011;5365;51.640;8.106;2023-06-24T10:26:45;3.53;;;3.05;;
10633;SDS011;5365;51.640;8.106;2023-06-24T10:32:51;5.32;;;3.75;;
10633;SDS011;5365;51.640;8.106;2023-06-24T10:35:52;6.40;;;3.67;;
10633;SDS011;5365;51.640;8.106;2023-06-24T10:38:55;4.35;;;3.00;;
10633;SDS011;5365;51.640;8.106;2023-06-24T10:41:56;4.75;;;3.13;;
10633;SDS011;5365;51.640;8.106;2023-06-24T10:47:56;3.70;;;3.17;;
10633;SDS011;5365;51.640;8.106;2023-06-24T10:50:59;10.18;;;3.83;;
10633;SDS011;5365;51.640;8.106;2023-06-24T10:53:59;3.93;;;2.73;;
10633;SDS011;5365;51.640;8.106;2023-06-24T10:56:59;4.03;;;3.17;;
10633;SDS011;5365;51.640;8.106;2023-06-24T11:00:00;4.50;;;2.85;;
10633;SDS011;5365;51.640;8.106;2023-06-24T11:03:14;4.13;;;3.08;;
10633;SDS011;5365;51.640;8.106;2023-06-24T11:06:14;5.40;;;3.80;;
10633;SDS011;5365;51.640;8.106;2023-06-24T11:09:15;4.53;;;3.30;;
10633;SDS011;5365;51.640;8.106;2023-06-24T11:12:15;6.17;;;4.13;;
10633;SDS011;5365;51.640;8.106;2023-06-24T11:15:15;5.13;;;3.70;;
10633;SDS011;5365;51.640;8.106;2023-06-24T11:18:15;5.03;;;3.87;;
10633;SDS011;5365;51.640;8.106;2023-06-24T11:21:15;6.77;;;4.07;;
10633;SDS011;5365;51.640;8.106;2023-06-24T11:24:15;6.57;;;3.33;;
10633;SDS011;5365;51.640;8.106;2023-06-24T11:27:16;3.97;;;3.13;;
10633;SDS011;5365;51.640;8.106;2023-06-24T11:30:16;3.77;;;2.80;;
10633;SDS011;5365;51.640;8.106;2023-06-24T11:33:26;3.88;;;2.72;;
10633;SDS011;5365;51.640;8.106;2023-06-24T11:36:27;4.13;;;3.70;;
10633;SDS011;5365;51.640;8.106;2023-06-24T11:39:29;4.45;;;3.40;;
10633;SDS011;5365;51.640;8.106;2023-06-24T11:42:29;3.37;;;2.50;;
10633;SDS011;5365;51.640;8.106;2023-06-24T11:45:30;6.57;;;3.97;;
10633;SDS011;5365;51.640;8.106;2023-06-24T11:48:38;6.38;;;3.80;;
10633;SDS011;5365;51.640;8.106;2023-06-24T11:51:38;4.85;;;3.65;;
10633;SDS011;5365;51.640;8.106;2023-06-24T11:54:45;5.13;;;3.50;;
10633;SDS011;5365;51.640;8.106;2023-06-24T12:00:55;3.78;;;2.78;;
10633;SDS011;5365;51.640;8.106;2023-06-24T12:03:56;3.47;;;3.08;;
10633;SDS011;5365;51.640;8.106;2023-06-24T12:06:56;4.30;;;3.30;;
10633;SDS011;5365;51.640;8.106;2023-06-24T12:09:57;2.97;;;2.55;;
10633;SDS011;5365;51.640;8.106;2023-06-24T12:12:57;4.55;;;3.50;;
10633;SDS011;5365;51.640;8.106;2023-06-24T12:15:58;3.97;;;2.92;;
10633;SDS011;5365;51.640;8.106;2023-06-24T12:18:58;4.30;;;3.30;;
10633;SDS011;5365;51.640;8.106;2023-06-24T12:21:58;3.38;;;2.50;;
10633;SDS011;5365;51.640;8.106;2023-06-24T12:24:58;3.92;;;2.92;;
10633;SDS011;5365;51.640;8.106;2023-06-24T12:27:59;4.43;;;3.70;;
10633;SDS011;5365;51.640;8.106;2023-06-24T12:34:02;4.53;;;3.28;;
10633;SDS011;5365;51.640;8.106;2023-06-24T12:37:03;4.00;;;3.03;;
10633;SDS011;5365;51.640;8.106;2023-06-24T12:40:03;4.63;;;3.17;;
10633;SDS011;5365;51.640;8.106;2023-06-24T12:43:04;5.15;;;3.60;;
10633;SDS011;5365;51.640;8.106;2023-06-24T12:46:04;3.83;;;2.90;;
10633;SDS011;5365;51.640;8.106;2023-06-24T12:49:04;4.10;;;3.10;;
10633;SDS011;5365;51.640;8.106;2023-06-24T12:52:05;3.83;;;3.53;;
10633;SDS011;5365;51.640;8.106;2023-06-24T12:55:05;3.53;;;3.23;;
10633;SDS011;5365;51.640;8.106;2023-06-24T12:58:06;3.53;;;3.22;;
10633;SDS011;5365;51.640;8.106;2023-06-24T13:01:07;3.40;;;2.88;;
10633;SDS011;5365;51.640;8.106;2023-06-24T13:04:07;2.93;;;2.73;;
10633;SDS011;5365;51.640;8.106;2023-06-24T13:07:07;4.87;;;3.40;;
10633;SDS011;5365;51.640;8.106;2023-06-24T13:10:09;5.53;;;3.63;;
10633;SDS011;5365;51.640;8.106;2023-06-24T13:13:10;4.05;;;3.72;;
10633;SDS011;5365;51.640;8.106;2023-06-24T13:16:10;4.30;;;3.90;;
10633;SDS011;5365;51.640;8.106;2023-06-24T13:19:10;3.13;;;2.83;;
10633;SDS011;5365;51.640;8.106;2023-06-24T13:22:10;3.63;;;3.20;;
10633;SDS011;5365;51.640;8.106;2023-06-24T13:25:11;3.37;;;2.97;;
10633;SDS011;5365;51.640;8.106;2023-06-24T13:28:11;4.20;;;3.23;;
10633;SDS011;5365;51.640;8.106;2023-06-24T13:31:11;4.13;;;3.73;;
10633;SDS011;5365;51.640;8.106;2023-06-24T13:34:11;3.88;;;3.58;;
10633;SDS011;5365;51.640;8.106;2023-06-24T13:37:12;3.57;;;2.60;;
10633;SDS011;5365;51.640;8.106;2023-06-24T13:40:12;4.57;;;4.17;;
10633;SDS011;5365;51.640;8.106;2023-06-24T13:43:12;3.20;;;2.87;;
10633;SDS011;5365;51.640;8.106;2023-06-24T13:46:12;3.70;;;3.40;;
10633;SDS011;5365;51.640;8.106;2023-06-24T13:49:13;3.60;;;2.83;;
10633;SDS011;5365;51.640;8.106;2023-06-24T13:52:13;3.43;;;3.17;;
10633;SDS011;5365;51.640;8.106;2023-06-24T13:55:13;3.13;;;2.43;;
10633;SDS011;5365;51.640;8.106;2023-06-24T13:58:13;4.40;;;3.77;;
10633;SDS011;5365;51.640;8.106;2023-06-24T14:01:14;3.67;;;3.30;;
10633;SDS011;5365;51.640;8.106;2023-06-24T14:04:14;3.67;;;3.37;;
10633;SDS011;5365;51.640;8.106;2023-06-24T14:07:14;3.00;;;2.70;;
10633;SDS011;5365;51.640;8.106;2023-06-24T14:10:14;3.07;;;2.77;;
10633;SDS011;5365;51.640;8.106;2023-06-24T14:13:14;4.40;;;3.17;;
10633;SDS011;5365;51.640;8.106;2023-06-24T14:16:15;4.03;;;2.87;;
10633;SDS011;5365;51.640;8.106;2023-06-24T14:19:15;3.40;;;3.10;;
10633;SDS011;5365;51.640;8.106;2023-06-24T14:22:16;3.20;;;2.37;;
10633;SDS011;5365;51.640;8.106;2023-06-24T14:25:17;2.92;;;2.00;;
10633;SDS011;5365;51.640;8.106;2023-06-24T14:28:17;2.83;;;2.17;;
10633;SDS011;5365;51.640;8.106;2023-06-24T14:31:18;3.40;;;2.57;;
10633;SDS011;5365;51.640;8.106;2023-06-24T14:34:18;3.63;;;2.57;;
10633;SDS011;5365;51.640;8.106;2023-06-24T14:37:18;3.80;;;3.10;;
10633;SDS011;5365;51.640;8.106;2023-06-24T14:40:18;3.07;;;2.77;;
10633;SDS011;5365;51.640;8.106;2023-06-24T14:43:18;3.67;;;2.60;;
10633;SDS011;5365;51.640;8.106;2023-06-24T14:46:19;3.47;;;2.00;;
10633;SDS011;5365;51.640;8.106;2023-06-24T14:49:19;3.13;;;1.60;;
10633;SDS011;5365;51.640;8.106;2023-06-24T14:52:19;2.37;;;2.00;;
10633;SDS011;5365;51.640;8.106;2023-06-24T14:55:19;2.60;;;2.40;;
10633;SDS011;5365;51.640;8.106;2023-06-24T14:58:19;3.23;;;1.93;;
10633;SDS011;5365;51.640;8.106;2023-06-24T15:01:20;4.70;;;2.08;;
10633;SDS011;5365;51.640;8.106;2023-06-24T15:04:20;2.47;;;1.73;;
10633;SDS011;5365;51.640;8.106;2023-06-24T15:07:20;2.30;;;1.80;;
10633;SDS011;5365;51.640;8.106;2023-06-24T15:10:21;2.53;;;1.50;;
10633;SDS011;5365;51.640;8.106;2023-06-24T15:13:21;3.53;;;2.03;;
10633;SDS011;5365;51.640;8.106;2023-06-24T15:16:21;2.93;;;2.00;;
10633;SDS011;5365;51.640;8.106;2023-06-24T15:19:21;2.90;;;1.47;;
10633;SDS011;5365;51.640;8.106;2023-06-24T15:22:21;1.93;;;1.47;;
10633;SDS011;5365;51.640;8.106;2023-06-24T15:25:23;2.10;;;1.55;;
10633;SDS011;5365;51.640;8.106;2023-06-24T15:28:23;2.37;;;1.30;;
10633;SDS011;5365;51.640;8.106;2023-06-24T15:31:23;2.37;;;1.70;;
10633;SDS011;5365;51.640;8.106;2023-06-24T15:34:24;2.87;;;1.83;;
10633;SDS011;5365;51.640;8.106;2023-06-24T15:37:24;2.90;;;2.07;;
10633;SDS011;5365;51.640;8.106;2023-06-24T15:40:24;3.23;;;1.67;;
10633;SDS011;5365;51.640;8.106;2023-06-24T15:43:24;2.70;;;1.75;;
10633;SDS011;5365;51.640;8.106;2023-06-24T15:46:24;3.10;;;1.70;;
10633;SDS011;5365;51.640;8.106;2023-06-24T15:49:25;3.13;;;1.70;;
10633;SDS011;5365;51.640;8.106;2023-06-24T15:52:25;2.13;;;1.33;;
10633;SDS011;5365;51.640;8.106;2023-06-24T15:55:25;1.90;;;1.40;;
10633;SDS011;5365;51.640;8.106;2023-06-24T15:58:25;2.50;;;1.50;;
10633;SDS011;5365;51.640;8.106;2023-06-24T16:01:26;3.70;;;1.97;;
10633;SDS011;5365;51.640;8.106;2023-06-24T16:04:26;2.10;;;1.47;;
10633;SDS011;5365;51.640;8.106;2023-06-24T16:07:26;2.77;;;1.97;;
10633;SDS011;5365;51.640;8.106;2023-06-24T16:10:26;2.80;;;2.20;;
10633;SDS011;5365;51.640;8.106;2023-06-24T16:13:26;2.47;;;1.80;;
10633;SDS011;5365;51.640;8.106;2023-06-24T16:16:27;3.47;;;1.90;;
10633;SDS011;5365;51.640;8.106;2023-06-24T16:19:27;2.13;;;1.93;;
10633;SDS011;5365;51.640;8.106;2023-06-24T16:22:28;2.53;;;1.75;;
10633;SDS011;5365;51.640;8.106;2023-06-24T16:25:28;2.30;;;1.77;;
10633;SDS011;5365;51.640;8.106;2023-06-24T16:28:28;3.23;;;2.50;;
10633;SDS011;5365;51.640;8.106;2023-06-24T16:31:28;2.60;;;1.93;;
10633;SDS011;5365;51.640;8.106;2023-06-24T16:34:29;8.13;;;2.40;;
10633;SDS011;5365;51.640;8.106;2023-06-24T16:37:29;3.37;;;2.13;;
10633;SDS011;5365;51.640;8.106;2023-06-24T16:40:29;2.93;;;1.93;;
10633;SDS011;5365;51.640;8.106;2023-06-24T16:43:29;3.47;;;2.13;;
10633;SDS011;5365;51.640;8.106;2023-06-24T16:46:29;2.53;;;1.80;;
10633;SDS011;5365;51.640;8.106;2023-06-24T16:49:30;3.30;;;1.75;;
10633;SDS011;5365;51.640;8.106;2023-06-24T16:52:31;2.63;;;2.00;;
10633;SDS011;5365;51.640;8.106;2023-06-24T16:55:32;3.03;;;1.55;;
10633;SDS011;5365;51.640;8.106;2023-06-24T16:58:32;2.77;;;1.70;;
10633;SDS011;5365;51.640;8.106;2023-06-24T17:01:33;2.93;;;1.80;;
10633;SDS011;5365;51.640;8.106;2023-06-24T17:04:33;3.30;;;1.70;;
10633;SDS011;5365;51.640;8.106;2023-06-24T17:07:33;2.83;;;2.20;;
10633;SDS011;5365;51.640;8.106;2023-06-24T17:10:34;3.23;;;1.80;;
10633;SDS011;5365;51.640;8.106;2023-06-24T17:13:34;3.60;;;1.52;;
10633;SDS011;5365;51.640;8.106;2023-06-24T17:16:34;1.77;;;1.43;;
10633;SDS011;5365;51.640;8.106;2023-06-24T17:19:34;3.17;;;1.83;;
10633;SDS011;5365;51.640;8.106;2023-06-24T17:22:35;2.77;;;2.13;;
10633;SDS011;5365;51.640;8.106;2023-06-24T17:25:35;3.13;;;1.58;;
10633;SDS011;5365;51.640;8.106;2023-06-24T17:28:35;3.80;;;1.80;;
10633;SDS011;5365;51.640;8.106;2023-06-24T17:31:35;1.77;;;0.93;;
10633;SDS011;5365;51.640;8.106;2023-06-24T17:34:35;2.83;;;1.70;;
10633;SDS011;5365;51.640;8.106;2023-06-24T17:37:36;2.30;;;1.98;;
10633;SDS011;5365;51.640;8.106;2023-06-24T17:40:36;3.97;;;2.13;;
10633;SDS011;5365;51.640;8.106;2023-06-24T17:43:37;3.13;;;1.77;;
10633;SDS011;5365;51.640;8.106;2023-06-24T17:46:37;2.07;;;1.47;;
10633;SDS011;5365;51.640;8.106;2023-06-24T17:49:37;3.00;;;1.90;;
10633;SDS011;5365;51.640;8.106;2023-06-24T17:52:37;3.30;;;1.87;;
10633;SDS011;5365;51.640;8.106;2023-06-24T17:55:37;4.83;;;2.10;;
10633;SDS011;5365;51.640;8.106;2023-06-24T17:58:39;2.88;;;1.90;;
10633;SDS011;5365;51.640;8.106;2023-06-24T18:01:39;2.67;;;1.67;;
10633;SDS011;5365;51.640;8.106;2023-06-24T18:04:39;3.43;;;1.70;;
10633;SDS011;5365;51.640;8.106;2023-06-24T18:07:39;1.83;;;1.42;;
10633;SDS011;5365;51.640;8.106;2023-06-24T18:10:39;3.15;;;1.92;;
10633;SDS011;5365;51.640;8.106;2023-06-24T18:13:41;2.35;;;1.42;;
10633;SDS011;5365;51.640;8.106;2023-06-24T18:16:46;2.77;;;1.37;;
10633;SDS011;5365;51.640;8.106;2023-06-24T18:19:47;1.92;;;1.35;;
10633;SDS011;5365;51.640;8.106;2023-06-24T18:22:48;5.10;;;2.00;;
10633;SDS011;5365;51.640;8.106;2023-06-24T18:25:48;3.53;;;1.77;;
10633;SDS011;5365;51.640;8.106;2023-06-24T18:28:48;2.73;;;1.90;;
10633;SDS011;5365;51.640;8.106;2023-06-24T18:31:48;2.63;;;1.63;;
10633;SDS011;5365;51.640;8.106;2023-06-24T18:34:49;3.07;;;1.40;;
10633;SDS011;5365;51.640;8.106;2023-06-24T18:37:49;3.30;;;1.52;;
10633;SDS011;5365;51.640;8.106;2023-06-24T18:40:50;5.38;;;2.13;;
10633;SDS011;5365;51.640;8.106;2023-06-24T18:43:50;3.03;;;1.67;;
10633;SDS011;5365;51.640;8.106;2023-06-24T18:46:50;4.60;;;1.70;;
10633;SDS011;5365;51.640;8.106;2023-06-24T18:49:50;2.17;;;1.25;;
10633;SDS011;5365;51.640;8.106;2023-06-24T18:52:50;2.47;;;1.10;;